createdAt,value
2023-02-23T00:02:09.110Z,17.50
2023-02-23T00:04:38.377Z,17.73
2023-02-23T00:07:08.386Z,17.23
2023-02-23T00:09:36.819Z,18.63
2023-02-23T00:12:08.731Z,16.67
2023-02-23T00:14:38.739Z,17.43
2023-02-23T00:17:14.157Z,18.23
2023-02-23T00:19:43.782Z,18.60
2023-02-23T00:22:13.758Z,15.60
2023-02-23T00:24:43.138Z,18.17
2023-02-23T00:27:17.547Z,17.13
2023-02-23T00:29:49.299Z,15.47
2023-02-23T00:32:20.080Z,15.10
2023-02-23T00:34:49.723Z,18.40
2023-02-23T00:37:22.716Z,20.30
2023-02-23T00:39:52.100Z,16.87
2023-02-23T00:42:21.118Z,14.80
2023-02-23T00:44:49.737Z,16.77
2023-02-23T00:47:18.178Z,16.00
2023-02-23T00:49:46.709Z,16.43
2023-02-23T00:52:15.549Z,17.83
2023-02-23T00:54:45.456Z,17.00
2023-02-23T00:57:15.774Z,17.07
2023-02-23T00:59:44.096Z,17.97
2023-02-23T01:02:12.428Z,15.63
2023-02-23T01:04:40.822Z,15.17
2023-02-23T01:07:09.187Z,21.10
2023-02-23T01:09:38.129Z,15.93
2023-02-23T01:12:08.401Z,19.10
2023-02-23T01:14:38.363Z,15.40
2023-02-23T01:17:07.516Z,15.37
2023-02-23T01:19:37.784Z,17.70
2023-02-23T01:22:06.300Z,15.30
2023-02-23T01:24:34.628Z,18.40
2023-02-23T01:27:07.540Z,17.53
2023-02-23T01:29:35.881Z,20.53
2023-02-23T01:33:21.135Z,15.73
2023-02-23T01:35:59.498Z,16.77
2023-02-23T01:38:28.193Z,17.00
2023-02-23T01:40:56.499Z,15.57
2023-02-23T01:43:26.940Z,18.80
2023-02-23T01:45:58.133Z,16.70
2023-02-23T01:48:31.806Z,19.67
2023-02-23T01:51:05.902Z,15.90
2023-02-23T01:53:39.026Z,18.87
2023-02-23T01:56:13.020Z,18.00
2023-02-23T01:58:46.694Z,19.10
2023-02-23T02:01:16.193Z,19.57
2023-02-23T02:03:48.804Z,16.70
2023-02-23T02:06:21.063Z,15.70
2023-02-23T02:08:54.982Z,17.50
2023-02-23T02:11:30.892Z,18.80
2023-02-23T02:14:03.678Z,18.63
2023-02-23T02:16:50.237Z,17.37
2023-02-23T02:19:59.116Z,18.87
2023-02-23T02:23:16.985Z,17.40
2023-02-23T02:25:59.025Z,15.97
2023-02-23T02:29:26.395Z,17.93
2023-02-23T02:32:26.869Z,16.10
2023-02-23T02:35:34.670Z,18.43
2023-02-23T02:38:31.414Z,16.70
2023-02-23T02:41:05.470Z,17.30
2023-02-23T02:43:46.966Z,20.30
2023-02-23T02:46:19.742Z,19.90
2023-02-23T02:48:57.767Z,18.80
2023-02-23T02:51:29.562Z,20.30
2023-02-23T02:54:07.102Z,16.37
2023-02-23T02:56:40.584Z,18.20
2023-02-23T02:59:32.235Z,18.70
2023-02-23T03:02:18.269Z,19.63
2023-02-23T03:05:04.191Z,18.67
2023-02-23T03:07:56.060Z,21.27
2023-02-23T03:10:53.666Z,18.63
2023-02-23T03:13:50.991Z,19.73
2023-02-23T03:16:51.481Z,19.40
2023-02-23T03:19:40.955Z,18.13
2023-02-23T03:22:37.417Z,19.70
2023-02-23T03:25:29.193Z,16.90
2023-02-23T03:28:29.726Z,19.40
2023-02-23T03:31:28.740Z,20.93
2023-02-23T03:34:31.381Z,16.67
2023-02-23T03:37:33.514Z,20.47
2023-02-23T03:40:26.238Z,18.67
2023-02-23T03:43:18.600Z,18.57
2023-02-23T03:46:07.295Z,18.03
2023-02-23T03:48:55.160Z,19.87
2023-02-23T03:51:43.715Z,18.30
2023-02-23T03:54:34.696Z,20.30
2023-02-23T03:57:24.519Z,18.10
2023-02-23T04:00:16.198Z,21.63
2023-02-23T04:03:06.922Z,20.70
2023-02-23T04:05:56.245Z,19.37
2023-02-23T04:08:47.120Z,19.87
2023-02-23T04:11:40.004Z,18.10
2023-02-23T04:14:17.312Z,19.90
2023-02-23T04:16:47.180Z,20.77
2023-02-23T04:19:15.623Z,17.83
2023-02-23T04:21:43.930Z,20.60
2023-02-23T04:24:12.526Z,18.57
2023-02-23T04:26:40.816Z,19.37
2023-02-23T04:29:09.111Z,18.53
2023-02-23T04:31:37.551Z,19.80
2023-02-23T04:34:07.245Z,18.77
2023-02-23T04:36:36.364Z,18.10
2023-02-23T04:39:05.314Z,21.93
2023-02-23T04:41:33.637Z,20.87
2023-02-23T04:44:01.929Z,19.63
2023-02-23T04:46:30.421Z,19.27
2023-02-23T04:48:59.204Z,19.20
2023-02-23T04:51:32.332Z,18.67
2023-02-23T04:54:00.768Z,21.33
2023-02-23T04:56:29.168Z,20.23
2023-02-23T04:58:57.506Z,18.93
2023-02-23T05:01:25.866Z,19.03
2023-02-23T05:03:54.572Z,21.47
2023-02-23T05:06:23.469Z,23.00
2023-02-23T05:08:53.280Z,23.10
2023-02-23T05:11:21.608Z,24.80
2023-02-23T05:13:49.917Z,57.23
2023-02-23T05:16:18.198Z,45.07
2023-02-23T05:18:46.691Z,38.07
2023-02-23T05:21:15.063Z,58.97
2023-02-23T05:23:43.519Z,53.90
2023-02-23T05:26:14.642Z,38.07
2023-02-23T05:28:44.200Z,33.33
2023-02-23T05:31:12.897Z,31.83
2023-02-23T05:33:42.657Z,26.20
2023-02-23T05:36:12.702Z,22.50
2023-02-23T05:38:41.666Z,25.43
2023-02-23T05:41:13.262Z,23.63
2023-02-23T05:43:42.228Z,24.90
2023-02-23T05:46:11.538Z,21.90
2023-02-23T05:48:40.149Z,20.33
2023-02-23T05:51:11.873Z,20.73
2023-02-23T05:53:40.814Z,18.63
2023-02-23T05:56:18.242Z,20.50
2023-02-23T05:58:46.769Z,18.20
2023-02-23T06:01:15.076Z,19.77
2023-02-23T06:03:43.448Z,19.00
2023-02-23T06:06:12.114Z,19.57
2023-02-23T06:08:40.542Z,21.07
2023-02-23T06:11:09.170Z,21.43
2023-02-23T06:13:39.258Z,20.87
2023-02-23T06:16:09.504Z,19.50
2023-02-23T06:18:38.030Z,19.10
2023-02-23T06:21:08.094Z,19.73
2023-02-23T06:23:36.443Z,21.07
2023-02-23T06:26:04.906Z,18.97
2023-02-23T06:28:33.304Z,18.73
2023-02-23T06:31:03.083Z,17.37
2023-02-23T06:33:31.585Z,19.57
2023-02-23T06:36:00.001Z,19.73
2023-02-23T06:38:28.387Z,19.13
2023-02-23T06:40:56.715Z,18.57
2023-02-23T06:43:25.075Z,18.20
2023-02-23T06:45:53.378Z,17.57
2023-02-23T06:48:23.075Z,19.27
2023-02-23T06:50:51.377Z,20.20
2023-02-23T06:53:20.293Z,18.73
2023-02-23T06:55:48.583Z,20.57
2023-02-23T06:58:17.719Z,21.03
2023-02-23T07:00:46.014Z,24.30
2023-02-23T07:03:14.397Z,49.47
2023-02-23T07:05:44.187Z,34.43
2023-02-23T07:08:12.641Z,28.10
2023-02-23T07:10:41.116Z,26.60
2023-02-23T07:13:09.639Z,20.43
2023-02-23T07:15:38.920Z,26.00
2023-02-23T07:18:08.072Z,23.67
2023-02-23T07:20:36.796Z,19.53
2023-02-23T07:23:06.473Z,19.33
2023-02-23T07:25:34.776Z,20.90
2023-02-23T07:28:03.562Z,20.10
2023-02-23T07:30:31.993Z,21.57
2023-02-23T07:33:00.345Z,20.20
2023-02-23T07:35:28.677Z,18.57
2023-02-23T07:37:56.964Z,21.33
2023-02-23T07:40:26.959Z,18.27
2023-02-23T07:42:55.581Z,21.37
2023-02-23T07:45:24.969Z,17.93
2023-02-23T07:47:53.348Z,17.53
2023-02-23T07:50:21.843Z,18.77
2023-02-23T07:52:50.203Z,21.37
2023-02-23T07:55:18.847Z,19.07
2023-02-23T07:57:48.551Z,18.50
2023-02-23T08:00:17.783Z,17.80
2023-02-23T08:02:46.162Z,19.60
2023-02-23T08:05:14.491Z,23.03
2023-02-23T08:07:42.850Z,18.83
2023-02-23T08:10:13.088Z,21.30
2023-02-23T08:12:41.521Z,19.20
2023-02-23T08:15:12.262Z,20.93
2023-02-23T08:17:41.484Z,17.27
2023-02-23T08:20:12.845Z,18.27
2023-02-23T08:22:49.293Z,17.97
2023-02-23T08:25:18.856Z,17.33
2023-02-23T08:27:47.569Z,17.47
2023-02-23T08:30:18.043Z,18.60
2023-02-23T08:32:46.764Z,17.23
2023-02-23T08:35:15.894Z,18.03
2023-02-23T08:37:45.409Z,15.40
2023-02-23T08:40:15.784Z,15.90
2023-02-23T08:42:44.278Z,19.07
2023-02-23T08:45:13.543Z,18.67
2023-02-23T08:47:43.295Z,17.23
2023-02-23T08:50:14.115Z,21.17
2023-02-23T08:52:43.130Z,15.97
2023-02-23T08:55:14.007Z,19.67
2023-02-23T08:57:42.439Z,15.47
2023-02-23T09:00:16.872Z,20.53
2023-02-23T09:02:48.227Z,18.13
2023-02-23T09:05:17.346Z,18.70
2023-02-23T09:07:47.347Z,17.70
2023-02-23T09:10:19.814Z,18.90
2023-02-23T09:12:48.250Z,21.73
2023-02-23T09:15:16.722Z,20.77
2023-02-23T09:17:47.351Z,22.80
2023-02-23T09:20:17.210Z,18.53
2023-02-23T09:22:48.720Z,21.07
2023-02-23T09:25:22.890Z,17.70
2023-02-23T09:27:52.713Z,18.00
2023-02-23T09:30:22.647Z,18.37
2023-02-23T09:32:52.923Z,21.73
2023-02-23T09:35:23.877Z,20.13
2023-02-23T09:37:55.771Z,19.40
2023-02-23T09:40:27.920Z,20.60
2023-02-23T09:43:04.495Z,20.40
2023-02-23T09:45:40.811Z,17.83
2023-02-23T09:48:17.568Z,20.23
2023-02-23T09:50:51.560Z,22.37
2023-02-23T09:53:37.346Z,19.00
2023-02-23T09:56:12.999Z,19.73
2023-02-23T09:58:42.194Z,22.97
2023-02-23T10:01:54.625Z,30.90
2023-02-23T10:04:28.852Z,25.17
2023-02-23T10:07:12.452Z,21.60
2023-02-23T10:09:57.293Z,20.73
2023-02-23T10:12:34.532Z,22.17
2023-02-23T10:15:17.702Z,21.00
2023-02-23T10:17:59.057Z,23.57
2023-02-23T10:20:40.545Z,20.37
2023-02-23T10:23:14.968Z,25.17
2023-02-23T10:25:47.871Z,33.07
2023-02-23T10:28:18.904Z,26.30
2023-02-23T10:30:48.534Z,22.47
2023-02-23T10:33:22.584Z,21.10
2023-02-23T10:36:12.583Z,25.37
2023-02-23T10:38:42.357Z,22.03
2023-02-23T10:41:14.718Z,20.43
2023-02-23T10:43:43.857Z,20.27
2023-02-23T10:46:22.316Z,20.07
2023-02-23T10:48:52.576Z,21.33
2023-02-23T10:51:29.615Z,19.73
2023-02-23T10:54:07.496Z,19.27
2023-02-23T10:56:46.174Z,20.20
2023-02-23T10:59:21.631Z,17.47
2023-02-23T11:02:01.478Z,18.23
2023-02-23T11:04:35.135Z,18.30
2023-02-23T11:07:15.361Z,17.53
2023-02-23T11:09:47.531Z,18.90
2023-02-23T11:12:23.062Z,17.60
2023-02-23T11:14:55.376Z,19.73
2023-02-23T11:17:35.747Z,19.23
2023-02-23T11:20:11.828Z,18.80
2023-02-23T11:22:43.668Z,20.77
2023-02-23T11:25:27.612Z,18.93
2023-02-23T11:27:57.204Z,24.17
2023-02-23T11:30:29.832Z,18.40
2023-02-23T11:33:09.476Z,17.53
2023-02-23T11:35:39.286Z,18.77
2023-02-23T11:38:24.481Z,18.47
2023-02-23T11:41:05.605Z,20.03
2023-02-23T11:43:36.253Z,22.17
2023-02-23T11:46:05.573Z,22.13
2023-02-23T11:48:37.746Z,20.90
2023-02-23T11:51:06.977Z,19.30
2023-02-23T11:53:41.322Z,18.77
2023-02-23T11:56:12.731Z,21.13
2023-02-23T11:58:45.124Z,18.80
2023-02-23T12:01:17.321Z,15.60
2023-02-23T12:03:50.515Z,17.10
2023-02-23T12:06:31.379Z,20.60
2023-02-23T12:09:08.352Z,15.57
2023-02-23T12:11:43.006Z,15.77
2023-02-23T12:14:20.187Z,14.60
2023-02-23T12:16:52.440Z,14.53
2023-02-23T12:19:28.958Z,12.67
2023-02-23T12:22:08.072Z,12.90
2023-02-23T12:24:47.542Z,13.10
2023-02-23T12:27:22.644Z,12.37
2023-02-23T12:30:09.145Z,10.83
2023-02-23T12:32:47.931Z,10.17
2023-02-23T12:35:23.867Z,12.27
2023-02-23T12:37:59.493Z,11.30
2023-02-23T12:40:36.112Z,11.63
2023-02-23T12:43:13.768Z,11.30
2023-02-23T12:45:49.541Z,8.73
2023-02-23T12:48:34.593Z,10.83
2023-02-23T12:51:10.964Z,13.90
2023-02-23T12:53:43.576Z,9.63
2023-02-23T12:56:32.803Z,9.20
2023-02-23T12:59:25.510Z,12.03
2023-02-23T13:01:58.762Z,9.67
2023-02-23T13:04:52.442Z,8.13
2023-02-23T13:07:24.963Z,9.10
2023-02-23T13:10:11.118Z,8.70
2023-02-23T13:12:53.777Z,6.77
2023-02-23T13:15:32.533Z,8.43
2023-02-23T13:18:08.427Z,7.50
2023-02-23T13:20:44.659Z,7.50
2023-02-23T13:23:23.103Z,6.40
2023-02-23T13:26:01.782Z,6.90
2023-02-23T13:28:47.584Z,8.00
2023-02-23T13:31:27.120Z,6.60
2023-02-23T13:34:01.243Z,8.43
2023-02-23T13:36:33.157Z,9.13
2023-02-23T13:39:42.271Z,8.17
2023-02-23T13:42:32.355Z,7.80
2023-02-23T13:45:25.690Z,7.90
2023-02-23T13:48:02.482Z,9.37
2023-02-23T13:50:38.992Z,6.53
2023-02-23T13:53:22.903Z,7.67
2023-02-23T13:55:54.266Z,6.97
2023-02-23T13:58:34.388Z,8.23
2023-02-23T14:01:15.611Z,6.33
2023-02-23T14:03:57.166Z,8.43
2023-02-23T14:06:28.878Z,9.30
2023-02-23T14:09:09.181Z,7.47
2023-02-23T14:11:49.735Z,8.60
2023-02-23T14:14:42.905Z,6.07
2023-02-23T14:17:44.356Z,8.63
2023-02-23T14:20:29.732Z,7.33
2023-02-23T14:23:35.133Z,6.00
2023-02-23T14:26:43.730Z,6.10
2023-02-23T14:29:27.760Z,8.40
2023-02-23T14:32:01.766Z,7.10
2023-02-23T14:34:54.529Z,7.00
2023-02-23T14:37:32.253Z,5.03
2023-02-23T14:40:14.084Z,4.47
2023-02-23T14:42:43.849Z,4.73
2023-02-23T14:45:27.499Z,5.70
2023-02-23T14:48:00.994Z,5.00
2023-02-23T14:50:34.237Z,4.57
2023-02-23T14:53:04.654Z,5.60
2023-02-23T14:55:36.895Z,5.00
2023-02-23T14:58:27.459Z,4.03
2023-02-23T15:00:58.294Z,3.67
2023-02-23T15:03:27.730Z,5.00
2023-02-23T15:06:01.020Z,5.30
2023-02-23T15:08:31.498Z,4.03
2023-02-23T15:11:05.759Z,6.43
2023-02-23T15:16:09.788Z,5.63
2023-02-23T15:19:32.840Z,6.07
2023-02-23T15:22:04.841Z,5.03
2023-02-23T15:24:42.816Z,4.77
2023-02-23T15:27:22.642Z,3.90
2023-02-23T15:29:51.828Z,6.70
2023-02-23T15:32:23.563Z,5.13
2023-02-23T15:34:53.140Z,4.60
2023-02-23T15:37:32.744Z,6.10
2023-02-23T15:40:06.098Z,5.53
2023-02-23T15:42:41.091Z,8.40
2023-02-23T15:45:20.118Z,4.57
2023-02-23T15:47:48.555Z,4.50
2023-02-23T15:50:31.256Z,5.70
2023-02-23T15:53:13.806Z,3.90
2023-02-23T15:55:44.752Z,4.57
2023-02-23T15:58:22.167Z,4.90
2023-02-23T16:00:57.011Z,3.37
2023-02-23T16:03:31.666Z,6.30
2023-02-23T16:06:07.655Z,5.07
2023-02-23T16:08:37.470Z,7.07
2023-02-23T16:11:15.182Z,5.57
2023-02-23T16:13:45.296Z,6.47
2023-02-23T16:16:19.407Z,6.03
2023-02-23T16:18:53.759Z,9.60
2023-02-23T16:21:25.657Z,7.30
2023-02-23T16:23:58.405Z,6.57
2023-02-23T16:26:32.610Z,7.77
2023-02-23T16:29:03.477Z,13.33
2023-02-23T16:31:44.266Z,7.20
2023-02-23T16:34:22.788Z,4.83
2023-02-23T16:36:56.758Z,6.00
2023-02-23T16:39:30.314Z,6.90
2023-02-23T16:42:00.019Z,10.43
2023-02-23T16:44:42.997Z,5.97
2023-02-23T16:47:36.448Z,5.73
2023-02-23T16:50:20.221Z,8.97
2023-02-23T16:52:53.054Z,6.80
2023-02-23T16:55:26.546Z,6.73
2023-02-23T16:57:58.111Z,6.87
2023-02-23T17:00:29.187Z,6.53
2023-02-23T17:02:58.705Z,5.03
2023-02-23T17:05:28.326Z,9.30
2023-02-23T17:07:58.266Z,8.33
2023-02-23T17:10:31.720Z,5.87
2023-02-23T17:13:04.965Z,6.87
2023-02-23T17:15:36.768Z,8.93
2023-02-23T17:18:06.453Z,6.00
2023-02-23T17:20:35.421Z,5.03
2023-02-23T17:23:04.873Z,6.33
2023-02-23T17:25:34.954Z,5.73
2023-02-23T17:28:03.895Z,9.00
2023-02-23T17:30:33.139Z,11.17
2023-02-23T17:33:02.373Z,12.63
2023-02-23T17:35:33.390Z,8.23
2023-02-23T17:38:02.154Z,10.67
2023-02-23T17:40:31.113Z,12.73
2023-02-23T17:43:03.349Z,13.30
2023-02-23T17:45:32.543Z,16.80
2023-02-23T17:48:01.049Z,19.83
2023-02-23T17:50:29.895Z,18.00
2023-02-23T17:52:59.122Z,18.23
2023-02-23T17:55:27.942Z,16.50
2023-02-23T17:57:56.237Z,18.97
2023-02-23T18:00:26.181Z,20.73
2023-02-23T18:02:54.545Z,20.60
2023-02-23T18:05:23.074Z,20.13
2023-02-23T18:07:51.385Z,19.03
2023-02-23T18:10:19.905Z,18.13
2023-02-23T18:12:48.282Z,17.27
2023-02-23T18:15:17.470Z,13.37
2023-02-23T18:17:47.280Z,16.07
2023-02-23T18:20:16.511Z,13.97
2023-02-23T18:22:45.567Z,16.70
2023-02-23T18:25:21.986Z,15.17
2023-02-23T18:27:54.478Z,14.00
2023-02-23T18:30:24.917Z,12.17
2023-02-23T18:32:58.183Z,13.53
2023-02-23T18:35:26.667Z,16.43
2023-02-23T18:37:55.573Z,14.60
2023-02-23T18:40:24.901Z,16.20
2023-02-23T18:42:53.217Z,16.53
2023-02-23T18:45:21.590Z,11.70
2023-02-23T18:47:51.520Z,11.37
2023-02-23T18:50:21.979Z,11.00
2023-02-23T18:52:51.788Z,11.97
2023-02-23T18:55:22.244Z,9.20
2023-02-23T18:57:52.669Z,7.57
2023-02-23T19:00:22.618Z,11.07
2023-02-23T19:02:52.109Z,11.10
2023-02-23T19:05:22.366Z,12.90
2023-02-23T19:07:50.974Z,12.93
2023-02-23T19:10:19.559Z,9.17
2023-02-23T19:12:48.039Z,11.93
2023-02-23T19:15:17.150Z,9.87
2023-02-23T19:17:47.199Z,14.53
2023-02-23T19:20:18.699Z,10.33
2023-02-23T19:22:49.803Z,11.30
2023-02-23T19:25:18.648Z,12.23
2023-02-23T19:27:47.021Z,12.03
2023-02-23T19:30:15.742Z,9.97
2023-02-23T19:32:45.004Z,10.63
2023-02-23T19:35:15.727Z,12.30
2023-02-23T19:37:50.641Z,12.60
2023-02-23T19:40:22.862Z,9.70
2023-02-23T19:42:53.338Z,11.67
2023-02-23T19:45:24.867Z,13.93
2023-02-23T19:47:53.891Z,12.10
2023-02-23T19:50:23.152Z,10.20
2023-02-23T19:52:52.976Z,15.17
2023-02-23T19:55:21.394Z,12.83
2023-02-23T19:57:49.928Z,13.83
2023-02-23T20:00:19.163Z,12.23
2023-02-23T20:02:54.892Z,12.83
2023-02-23T20:05:25.716Z,10.17
2023-02-23T20:07:55.716Z,9.03
2023-02-23T20:10:25.881Z,15.90
2023-02-23T20:12:54.490Z,11.80
2023-02-23T20:15:23.611Z,10.50
2023-02-23T20:17:52.388Z,10.33
2023-02-23T20:20:25.584Z,10.10
2023-02-23T20:22:56.212Z,10.27
2023-02-23T20:25:27.163Z,10.40
2023-02-23T20:27:56.185Z,11.63
2023-02-23T20:30:25.420Z,15.37
2023-02-23T20:32:54.037Z,12.37
2023-02-23T20:35:26.340Z,12.10
2023-02-23T20:37:56.193Z,11.93
2023-02-23T20:40:24.767Z,13.17
2023-02-23T20:42:53.362Z,11.10
2023-02-23T20:45:25.801Z,12.90
2023-02-23T20:47:55.639Z,11.47
2023-02-23T20:50:28.613Z,19.17
2023-02-23T20:52:58.469Z,12.77
2023-02-23T20:55:27.132Z,10.03
2023-02-23T20:57:56.670Z,11.43
2023-02-23T21:00:32.057Z,12.20
2023-02-23T21:03:02.119Z,14.27
2023-02-23T21:05:33.630Z,25.93
2023-02-23T21:08:06.335Z,23.93
2023-02-23T21:10:40.126Z,30.23
2023-02-23T21:13:10.435Z,29.07
2023-02-23T21:15:39.553Z,26.17
2023-02-23T21:18:08.543Z,31.07
2023-02-23T21:20:38.985Z,24.83
2023-02-23T21:23:08.776Z,20.77
2023-02-23T21:25:38.460Z,19.97
2023-02-23T21:28:07.240Z,18.30
2023-02-23T21:30:35.626Z,17.97
2023-02-23T21:33:04.140Z,16.13
2023-02-23T21:35:35.169Z,15.43
2023-02-23T21:38:04.168Z,12.10
2023-02-23T21:40:33.859Z,13.60
2023-02-23T21:43:06.617Z,14.00
2023-02-23T21:45:34.989Z,14.53
2023-02-23T21:48:04.454Z,16.10
2023-02-23T21:50:32.833Z,18.47
2023-02-23T21:53:01.198Z,18.63
2023-02-23T21:55:29.572Z,18.30
2023-02-23T21:57:59.339Z,16.97
2023-02-23T22:00:28.080Z,17.80
2023-02-23T22:02:56.516Z,18.27
2023-02-23T22:05:24.952Z,19.67
2023-02-23T22:07:55.441Z,17.73
2023-02-23T22:10:26.215Z,17.43
2023-02-23T22:12:56.067Z,18.57
2023-02-23T22:15:28.210Z,18.67
2023-02-23T22:17:56.745Z,17.80
2023-02-23T22:20:26.319Z,30.77
2023-02-23T22:22:54.735Z,21.13
2023-02-23T22:25:23.052Z,18.00
2023-02-23T22:27:51.414Z,16.97
2023-02-23T22:30:22.446Z,17.00
2023-02-23T22:32:52.504Z,17.17
2023-02-23T22:35:21.060Z,17.53
2023-02-23T22:37:49.492Z,16.37
2023-02-23T22:40:18.564Z,17.47
2023-02-23T22:42:49.084Z,15.13
2023-02-23T22:45:18.113Z,19.87
2023-02-23T22:47:46.595Z,17.13
2023-02-23T22:50:19.188Z,16.43
2023-02-23T22:52:48.250Z,15.70
2023-02-23T22:55:16.804Z,18.57
2023-02-23T22:57:46.033Z,16.00
2023-02-23T23:00:17.784Z,15.17
2023-02-23T23:02:46.094Z,17.07
2023-02-23T23:05:16.592Z,15.77
2023-02-23T23:07:46.809Z,17.03
2023-02-23T23:10:17.646Z,16.70
2023-02-23T23:12:46.632Z,18.07
2023-02-23T23:15:17.536Z,17.20
2023-02-23T23:17:48.440Z,15.10
2023-02-23T23:20:25.593Z,14.37
2023-02-23T23:22:57.115Z,15.83
2023-02-23T23:25:25.870Z,16.43
2023-02-23T23:27:54.667Z,17.77
2023-02-23T23:30:26.162Z,13.93
2023-02-23T23:32:54.842Z,15.73
2023-02-23T23:35:25.990Z,16.57
2023-02-23T23:37:54.315Z,14.03
2023-02-23T23:40:24.506Z,16.07
2023-02-23T23:42:55.361Z,15.17
2023-02-23T23:45:25.357Z,17.27
2023-02-23T23:47:53.732Z,15.93
2023-02-23T23:50:26.850Z,18.17
2023-02-23T23:52:57.067Z,17.27
2023-02-23T23:55:31.270Z,15.00
2023-02-23T23:58:00.698Z,14.27
